Pagrindinis puslapis
METAR-TAF:

METAR-TAF

Oro uostai :

Kiurasao, Nyderlandų Antilai

platuma: 12-12N, ilguma: 068-58W, Aukštis: 9 m

Dabartinis oras

Ataskaita buvo paskelbta 32 minutes, ne 01:00 UTC
Vėjas 14 kt iš Rytų
Temperatūra 28°C
Drėgmė 74%
Slėgis 1012 hPa
Matomumas 10 km arba daugiau
Išsisklaidę debesys ne aukštis 1800 ft

METAR: TNCC 090100Z 10014KT 9999 SCT018 28/23 Q1012 NOSIG

Laikas: 21:32 (01:32 UTC)

Prognozė

Ataskaita buvo paskelbta 2 valandos ir 17 minutes, ne 23:15 UTC
Prognozė galioja nuo 09 metu 00 UTC su 09 metu 24 UTC
Vėjas 11 kt iš Rytų
Matomumas 10 km arba daugiau
Išsisklaidę debesys ne aukštis 2000 ft
Tikimybė 30% :
Laikinai
nuo 09 metu 06 UTC su 09 metu 16 UTC
Su prošvaistėmis ne aukštis 1400 ft

TAF: TNCC 082315Z 0900/0924 09011KT 9999 SCT020 PROB30 TEMPO 0906/0916 BKN014

Orai ataskaitas ir orų prognozės (METAR, TAF).

turimą stotys yra geltonos ir raudonos taškus žemėlapyje.

Perkelti pele per norėdami pamatyti stoties vardą.

Tada spustelėkite, norėdami matyti oro stebėjimo ir prognozės.

Norėdami pakeisti žemėlapį: spustelėkite ant žalios mygtukų su juodo kryžiaus žemyn,; žalią mygtuką su brūkšneliu, jei norite nutolinti; arba žalių rodyklių gretimoms žemėlapius.


METAR-TAF: